Sinegorsk — YJRC5 — position and weather

sailwx.info

Track history (hours):
 
Tides and Currents Weather Stations Pressure Air Temp Water Temp Dewpoint Dewpoint Depression Visibility Wind Speed Wind Dir Waves Ship Positions

Sinegorsk

Last reported at 2015-Mar-29 03:05 UTC. Time now 2015-Mar-30 10:36 UTC.
Position N 36°24' E 014°08'.

Length 133 m; draft 7.8 m.

Type: Cargo ship. MMSI: 576292000.

Date/timePositionNaut miles runAvg speedWind from/ knotsBaromVisibWave heightAir tempDewpointWater temp
2015-Mar-29 03:05N 36°24' E 014°08'2911.2
2015-Mar-29 00:27N 36°35' E 013°34'  
2015-Mar-24 08:33N 38°17' W 009°58'1110.8
2015-Mar-24 07:33N 38°27' W 010°01'1111.2
2015-Mar-24 06:33N 38°38' W 010°04'1111.2
2015-Mar-24 05:33N 38°49' W 010°05'1110.8
2015-Mar-24 04:30N 39°01' W 010°05'  
2015-Mar-21 02:32N 50°14' W 001°31'1515.1
2015-Mar-21 01:33N 50°18' W 001°09'1413.8
2015-Mar-21 00:33N 50°22' W 000°48'1611.4
2015-Mar-20 23:09N 50°26' W 000°24'16 9.6
2015-Mar-20 21:32N 50°30' W 000°00'9 8.7
2015-Mar-20 20:33N 50°33' E 000°13'9 9.1
2015-Mar-20 19:33N 50°35' E 000°26'1111.0
2015-Mar-20 18:33N 50°41' E 000°42'1312.9
2015-Mar-20 17:34N 50°49' E 000°57'1313.2
2015-Mar-20 16:34N 50°57' E 001°13'1212.1
2015-Mar-20 15:34N 51°05' E 001°28'10 9.6
2015-Mar-20 14:33N 51°11' E 001°40'9 8.7
2015-Mar-20 13:34N 51°18' E 001°49'9 8.6
2015-Mar-20 12:34N 51°25' E 001°56'10 9.5
2015-Mar-20 11:33N 51°32' E 002°06'1110.9
2015-Mar-20 10:33N 51°41' E 002°17'1212.5
2015-Mar-20 09:33N 51°50' E 002°30'1313.2
2015-Mar-20 08:34N 52°01' E 002°44'1313.3
2015-Mar-20 07:33N 52°11' E 002°57'1312.7
2015-Mar-20 06:33N 52°21' E 003°10'1211.8
2015-Mar-20 05:33N 52°30' E 003°22'1110.6
2015-Mar-20 04:33N 52°38' E 003°33'1010.2
2015-Mar-20 03:33N 52°46' E 003°43'1010.0
2015-Mar-20 02:33N 52°54' E 003°54'1310.5
2015-Mar-20 01:20N 53°03' E 004°09'1012.3
2015-Mar-20 00:33N 53°10' E 004°21'1512.4
2015-Mar-19 23:23N 53°23' E 004°31'1012.1
2015-Mar-19 22:33N 53°32' E 004°37'1211.7
2015-Mar-19 21:33N 53°43' E 004°43'1211.6
2015-Mar-19 20:32N 53°54' E 004°51'1111.6
2015-Mar-19 19:33N 54°05' E 004°56'1111.2
2015-Mar-19 18:33N 54°15' E 005°06'1211.0
2015-Mar-19 17:30N 54°25' E 005°17'1411.3
2015-Mar-19 16:16N 54°37' E 005°29'3411.8
2015-Mar-19 13:22N 55°06' E 005°60'911.5
2015-Mar-19 12:33N 55°14' E 006°08'1211.6
2015-Mar-19 11:31N 55°24' E 006°19'1111.5
2015-Mar-19 10:33N 55°34' E 006°29'  
Track history (hours):
 
Tides and Currents Weather Stations Pressure Air Temp Water Temp Dewpoint Dewpoint Depression Visibility Wind Speed Wind Dir Waves Ship Positions

Sinegorsk

Last reported at 2015-Mar-29 03:05 UTC. Time now 2015-Mar-30 10:36 UTC.
Position N 36°24' E 014°08'.

Length 133 m; draft 7.8 m.

Type: Cargo ship. MMSI: 576292000.

Date/timePositionNaut miles runAvg speedWind from/ knotsBaromVisibWave heightAir tempDewpointWater temp
2015-Mar-29 03:05N 36°24' E 014°08'2911.2
2015-Mar-29 00:27N 36°35' E 013°34'  
2015-Mar-24 08:33N 38°17' W 009°58'1110.8
2015-Mar-24 07:33N 38°27' W 010°01'1111.2
2015-Mar-24 06:33N 38°38' W 010°04'1111.2
2015-Mar-24 05:33N 38°49' W 010°05'1110.8
2015-Mar-24 04:30N 39°01' W 010°05'  
2015-Mar-21 02:32N 50°14' W 001°31'1515.1
2015-Mar-21 01:33N 50°18' W 001°09'1413.8
2015-Mar-21 00:33N 50°22' W 000°48'1611.4
2015-Mar-20 23:09N 50°26' W 000°24'16 9.6
2015-Mar-20 21:32N 50°30' W 000°00'9 8.7
2015-Mar-20 20:33N 50°33' E 000°13'9 9.1
2015-Mar-20 19:33N 50°35' E 000°26'1111.0
2015-Mar-20 18:33N 50°41' E 000°42'1312.9
2015-Mar-20 17:34N 50°49' E 000°57'1313.2
2015-Mar-20 16:34N 50°57' E 001°13'1212.1
2015-Mar-20 15:34N 51°05' E 001°28'10 9.6
2015-Mar-20 14:33N 51°11' E 001°40'9 8.7
2015-Mar-20 13:34N 51°18' E 001°49'9 8.6
2015-Mar-20 12:34N 51°25' E 001°56'10 9.5
2015-Mar-20 11:33N 51°32' E 002°06'1110.9
2015-Mar-20 10:33N 51°41' E 002°17'1212.5
2015-Mar-20 09:33N 51°50' E 002°30'1313.2
2015-Mar-20 08:34N 52°01' E 002°44'1313.3
2015-Mar-20 07:33N 52°11' E 002°57'1312.7
2015-Mar-20 06:33N 52°21' E 003°10'1211.8
2015-Mar-20 05:33N 52°30' E 003°22'1110.6
2015-Mar-20 04:33N 52°38' E 003°33'1010.2
2015-Mar-20 03:33N 52°46' E 003°43'1010.0
2015-Mar-20 02:33N 52°54' E 003°54'1310.5
2015-Mar-20 01:20N 53°03' E 004°09'1012.3
2015-Mar-20 00:33N 53°10' E 004°21'1512.4
2015-Mar-19 23:23N 53°23' E 004°31'1012.1
2015-Mar-19 22:33N 53°32' E 004°37'1211.7
2015-Mar-19 21:33N 53°43' E 004°43'1211.6
2015-Mar-19 20:32N 53°54' E 004°51'1111.6
2015-Mar-19 19:33N 54°05' E 004°56'1111.2
2015-Mar-19 18:33N 54°15' E 005°06'1211.0
2015-Mar-19 17:30N 54°25' E 005°17'1411.3
2015-Mar-19 16:16N 54°37' E 005°29'3411.8
2015-Mar-19 13:22N 55°06' E 005°60'911.5
2015-Mar-19 12:33N 55°14' E 006°08'1211.6
2015-Mar-19 11:31N 55°24' E 006°19'1111.5
2015-Mar-19 10:33N 55°34' E 006°29'  

Dump ship's entire track history